Time;durP1;ratioP1;P1;durP2;ratioP2;P2;SDS_P1;SDS_P2;PMS_P1;PMS_P2;Temp;Humidity;BMP_temperature;BMP_pressure;BME280_temperature;BME280_humidity;BME280_pressure;Samples;Min_cycle;Max_cycle;Signal;HPM_P1;HPM_P2
2021/12/01 00:01:28;;;;;;;2.65;0.95;;;19.70;50.20;;;;;;5077233;28;20055;-88
2021/12/01 00:03:54;;;;;;;2.00;0.75;;;19.70;50.30;;;;;;5095437;28;20485;-89
2021/12/01 00:06:19;;;;;;;2.45;0.90;;;19.70;50.30;;;;;;5077174;28;20023;-88
2021/12/01 00:08:45;;;;;;;2.08;0.88;;;19.60;50.30;;;;;;5094053;28;20028;-88
2021/12/01 00:11:11;;;;;;;3.28;1.00;;;19.60;50.30;;;;;;5095230;28;20056;-89
2021/12/01 00:13:36;;;;;;;3.65;0.90;;;19.60;50.40;;;;;;5095264;28;20032;-87
2021/12/01 00:16:03;;;;;;;2.63;0.93;;;19.60;50.40;;;;;;5095056;28;20027;-89
2021/12/01 00:18:29;;;;;;;3.15;0.90;;;19.60;50.50;;;;;;5095127;28;20048;-89
2021/12/01 00:20:56;;;;;;;4.63;1.13;;;19.50;50.40;;;;;;5076677;28;20093;-89
2021/12/01 00:23:22;;;;;;;1.38;0.80;;;19.50;50.50;;;;;;5075301;28;20020;-88
2021/12/01 00:25:48;;;;;;;2.13;0.82;;;19.50;50.50;;;;;;5095060;28;20024;-89
2021/12/01 00:28:14;;;;;;;2.70;0.85;;;19.50;50.50;;;;;;5094780;28;20656;-89
2021/12/01 00:30:40;;;;;;;1.77;0.80;;;19.50;50.50;;;;;;5094659;28;20024;-89
2021/12/01 00:33:09;;;;;;;2.45;0.80;;;19.40;50.50;;;;;;5094519;28;20111;-88
2021/12/01 00:35:35;;;;;;;2.20;0.75;;;19.40;50.50;;;;;;5076433;28;20073;-87
2021/12/01 00:38:00;;;;;;;3.25;0.70;;;19.40;50.70;;;;;;5076482;28;20020;-89
2021/12/01 00:40:26;;;;;;;2.60;0.82;;;19.40;50.70;;;;;;5092513;28;20020;-87
2021/12/01 00:42:53;;;;;;;1.25;0.57;;;19.30;50.60;;;;;;5076397;28;20635;-89
2021/12/01 00:45:22;;;;;;;2.10;0.70;;;19.30;50.70;;;;;;5094404;28;20020;-89
2021/12/01 00:47:52;;;;;;;4.40;0.90;;;19.30;50.70;;;;;;5094232;28;20099;-88
2021/12/01 00:50:31;;;;;;;1.75;0.70;;;19.30;50.80;;;;;;5094472;28;20034;-88
2021/12/01 00:53:00;;;;;;;1.80;0.80;;;19.20;50.70;;;;;;5094232;28;20111;-89
2021/12/01 00:55:26;;;;;;;1.88;0.80;;;19.20;50.80;;;;;;5094567;28;20488;-89
2021/12/01 00:57:53;;;;;;;1.90;0.88;;;19.20;50.80;;;;;;5076169;28;20074;-88
2021/12/01 01:00:24;;;;;;;2.25;0.60;;;19.20;51.20;;;;;;5075909;28;20024;-88
2021/12/01 01:02:51;;;;;;;1.70;0.80;;;19.20;50.90;;;;;;5094358;28;20024;-88
2021/12/01 01:05:17;;;;;;;1.95;0.70;;;19.10;50.90;;;;;;5093995;28;20482;-88
2021/12/01 01:07:43;;;;;;;1.95;0.63;;;19.10;50.90;;;;;;5093832;28;20020;-89
2021/12/01 01:10:45;;;;;;;2.20;0.70;;;19.10;51.00;;;;;;5094032;28;20020;-88
2021/12/01 01:18:47;;;;;;;2.60;0.70;;;19.10;51.10;;;;;;5094478;28;20043;-90
2021/12/01 01:21:12;;;;;;;1.88;0.63;;;19.00;51.10;;;;;;5094146;28;20099;-88
2021/12/01 01:23:39;;;;;;;1.75;0.80;;;19.00;51.10;;;;;;5092674;28;20498;-89
2021/12/01 01:26:10;;;;;;;3.47;0.80;;;19.00;51.10;;;;;;5075708;28;20028;-88
2021/12/01 01:28:35;;;;;;;1.98;0.70;;;19.00;51.20;;;;;;5094327;28;20024;-89
2021/12/01 01:31:01;;;;;;;1.63;0.80;;;18.90;51.20;;;;;;5093738;28;20439;-88
2021/12/01 01:33:27;;;;;;;2.17;0.80;;;18.90;51.20;;;;;;5093171;28;20545;-88
2021/12/01 01:35:53;;;;;;;1.75;0.80;;;18.90;51.20;;;;;;5093563;28;20381;-88
2021/12/01 01:38:19;;;;;;;2.50;0.80;;;18.90;51.30;;;;;;5075513;28;20024;-89
2021/12/01 01:40:44;;;;;;;2.95;0.70;;;18.80;51.30;;;;;;5093837;28;20412;-89
2021/12/01 01:43:11;;;;;;;1.05;0.52;;;18.90;51.40;;;;;;5075446;28;20105;-88
2021/12/01 01:45:37;;;;;;;1.30;0.70;;;18.80;51.30;;;;;;5075559;28;20381;-88
2021/12/01 01:48:08;;;;;;;1.73;0.88;;;18.80;51.30;;;;;;5093665;28;20020;-89
2021/12/01 01:50:36;;;;;;;2.03;0.60;;;18.80;51.40;;;;;;5075613;28;20897;-89
2021/12/01 01:53:11;;;;;;;1.33;0.60;;;18.80;51.40;;;;;;5096814;28;20051;-89
2021/12/01 01:55:43;;;;;;;0.90;0.60;;;18.80;51.40;;;;;;5079801;28;20443;-88
2021/12/01 01:58:09;;;;;;;1.20;0.70;;;18.80;51.50;;;;;;5097711;28;20489;-88
2021/12/01 02:00:44;;;;;;;1.10;0.60;;;18.70;51.50;;;;;;5097810;28;20494;-88
2021/12/01 02:03:14;;;;;;;1.70;0.73;;;18.70;51.50;;;;;;5097737;28;20020;-88
2021/12/01 02:05:40;;;;;;;1.30;0.68;;;18.70;51.50;;;;;;5079684;28;20020;-89
2021/12/01 02:08:15;;;;;;;2.22;0.60;;;18.70;51.50;;;;;;5079551;28;20476;-88
2021/12/01 02:10:48;;;;;;;0.77;0.60;;;18.60;51.50;;;;;;5079292;28;20039;-87
2021/12/01 02:13:14;;;;;;;1.77;0.73;;;18.60;51.60;;;;;;5097326;28;20112;-89
2021/12/01 02:15:41;;;;;;;0.90;0.70;;;18.60;51.60;;;;;;5097363;28;20369;-87
2021/12/01 02:18:07;;;;;;;1.67;0.60;;;18.60;51.60;;;;;;5097224;28;20016;-88
2021/12/01 02:20:33;;;;;;;1.30;0.50;;;18.60;51.60;;;;;;5078977;28;20108;-89
2021/12/01 02:23:00;;;;;;;1.77;0.70;;;18.60;51.70;;;;;;5097088;28;20082;-89
2021/12/01 02:25:25;;;;;;;1.55;0.68;;;18.60;51.70;;;;;;5078857;28;20020;-89
2021/12/01 02:27:51;;;;;;;2.83;0.85;;;18.50;51.70;;;;;;5097002;28;20022;-88
2021/12/01 02:30:16;;;;;;;1.80;0.70;;;18.50;51.70;;;;;;5097410;28;20024;-89
2021/12/01 02:32:42;;;;;;;1.13;0.60;;;18.50;51.70;;;;;;5097287;28;20110;-88
2021/12/01 02:35:09;;;;;;;0.95;0.60;;;18.50;51.80;;;;;;5078710;28;20066;-89
2021/12/01 02:37:37;;;;;;;2.10;0.68;;;18.50;51.80;;;;;;5078856;28;20119;-89
2021/12/01 02:40:04;;;;;;;1.38;0.60;;;18.40;51.80;;;;;;5096904;28;20074;-90
2021/12/01 02:42:30;;;;;;;1.33;0.50;;;18.50;51.80;;;;;;5097098;28;20040;-89
2021/12/01 02:44:56;;;;;;;1.23;0.63;;;18.50;51.80;;;;;;5078644;28;20157;-88
2021/12/01 02:47:24;;;;;;;1.88;0.80;;;18.40;51.80;;;;;;5079077;28;20123;-89
2021/12/01 02:49:53;;;;;;;1.38;0.52;;;18.40;51.90;;;;;;5078556;28;20064;-89
2021/12/01 02:52:19;;;;;;;1.17;0.63;;;18.40;51.90;;;;;;5096606;28;20020;-88
2021/12/01 02:54:45;;;;;;;1.10;0.50;;;18.40;52.00;;;;;;5078242;28;20118;-89
2021/12/01 02:57:11;;;;;;;1.15;0.52;;;18.30;52.00;;;;;;5096714;28;20024;-87
2021/12/01 02:59:38;;;;;;;1.25;0.57;;;18.30;52.00;;;;;;5096439;28;20031;-89
2021/12/01 03:02:04;;;;;;;0.80;0.55;;;18.30;52.00;;;;;;5096582;28;20474;-88
2021/12/01 03:04:30;;;;;;;1.50;0.75;;;18.30;52.00;;;;;;5077681;28;20020;-88
2021/12/01 03:06:56;;;;;;;0.85;0.55;;;18.30;52.00;;;;;;5078241;28;20367;-89
2021/12/01 03:09:23;;;;;;;1.17;0.50;;;18.30;52.10;;;;;;5078302;28;20020;-89
2021/12/01 03:11:49;;;;;;;1.60;0.60;;;18.20;52.10;;;;;;5096196;28;20020;-89
2021/12/01 03:14:17;;;;;;;2.53;0.50;;;18.20;52.10;;;;;;5095008;28;20032;-89
2021/12/01 03:16:47;;;;;;;1.45;0.60;;;18.20;52.10;;;;;;5077931;28;20024;-90
2021/12/01 03:19:12;;;;;;;2.80;0.60;;;18.20;52.10;;;;;;5096010;28;20446;-89
2021/12/01 03:21:43;;;;;;;1.05;0.50;;;18.20;52.10;;;;;;5078031;28;20047;-88
2021/12/01 03:24:09;;;;;;;1.45;0.70;;;18.20;52.10;;;;;;5096029;28;20076;-89
2021/12/01 03:26:36;;;;;;;1.00;0.60;;;18.20;52.10;;;;;;5096341;28;20035;-90
2021/12/01 03:29:04;;;;;;;1.15;0.60;;;18.10;52.10;;;;;;5077951;28;20020;-88
2021/12/01 03:31:30;;;;;;;0.82;0.47;;;18.10;52.20;;;;;;5095969;28;20075;-90
2021/12/01 03:33:56;;;;;;;1.15;0.70;;;18.10;52.10;;;;;;5095729;28;20410;-89
2021/12/01 03:36:21;;;;;;;0.90;0.60;;;18.10;52.10;;;;;;5095892;28;20027;-90
2021/12/01 03:38:47;;;;;;;1.20;0.50;;;18.10;52.20;;;;;;5095645;28;20101;-89
2021/12/01 03:41:13;;;;;;;1.30;0.52;;;18.10;52.20;;;;;;5077177;28;20027;-90
2021/12/01 03:43:39;;;;;;;2.63;0.60;;;18.10;52.30;;;;;;5095879;28;20016;-88
2021/12/01 03:46:04;;;;;;;1.50;0.50;;;18.10;52.30;;;;;;5095663;28;20024;-88
2021/12/01 03:48:30;;;;;;;1.58;0.55;;;18.00;52.20;;;;;;5095612;28;20095;-89
2021/12/01 03:50:56;;;;;;;1.23;0.50;;;18.00;52.20;;;;;;5095575;28;20059;-88
2021/12/01 03:53:23;;;;;;;1.98;0.57;;;18.00;52.30;;;;;;5077168;28;20073;-90
2021/12/01 03:55:50;;;;;;;0.98;0.55;;;18.00;52.30;;;;;;5094305;28;20455;-89
2021/12/01 03:58:15;;;;;;;1.05;0.50;;;18.00;52.30;;;;;;5077369;28;20097;-88
2021/12/01 04:00:41;;;;;;;1.50;0.60;;;18.00;52.40;;;;;;5094046;28;20355;-88
2021/12/01 04:03:07;;;;;;;0.90;0.50;;;17.90;52.30;;;;;;5095232;28;20042;-88
2021/12/01 04:05:34;;;;;;;1.40;0.60;;;17.90;52.30;;;;;;5095303;28;20035;-89
2021/12/01 04:08:01;;;;;;;1.38;0.50;;;17.90;52.30;;;;;;5095131;28;20012;-89
2021/12/01 04:10:28;;;;;;;1.15;0.50;;;17.90;52.30;;;;;;5076972;28;20031;-89
2021/12/01 04:12:54;;;;;;;0.80;0.40;;;17.90;52.30;;;;;;5076745;28;20028;-88
2021/12/01 04:15:21;;;;;;;1.17;0.50;;;17.90;52.40;;;;;;5094156;28;20027;-88
2021/12/01 04:17:47;;;;;;;0.77;0.30;;;17.90;52.50;;;;;;5100203;28;20017;-89
2021/12/01 04:20:15;;;;;;;1.48;0.60;;;17.90;52.50;;;;;;5111603;28;20053;-88
2021/12/01 04:22:42;;;;;;;0.80;0.50;;;17.90;52.50;;;;;;5110716;28;20039;-90
2021/12/01 04:25:09;;;;;;;1.13;0.60;;;17.90;52.70;;;;;;5077867;28;20470;-88
2021/12/01 04:27:35;;;;;;;1.80;0.60;;;17.80;52.60;;;;;;5094196;28;20043;-85
2021/12/01 04:30:01;;;;;;;0.98;0.50;;;17.80;52.40;;;;;;5111633;28;20020;-84
2021/12/01 04:32:27;;;;;;;1.25;0.70;;;17.80;52.50;;;;;;5109917;28;20024;-88
2021/12/01 04:34:52;;;;;;;1.25;0.50;;;17.80;52.60;;;;;;5096618;28;20078;-88
2021/12/01 04:37:18;;;;;;;0.82;0.50;;;17.80;52.60;;;;;;5083327;28;20095;-88
2021/12/01 04:39:43;;;;;;;1.13;0.60;;;17.70;52.60;;;;;;5093740;28;20549;-88
2021/12/01 04:42:11;;;;;;;1.80;0.60;;;17.80;52.70;;;;;;5093612;28;20044;-89
2021/12/01 04:44:38;;;;;;;1.00;0.45;;;17.70;52.90;;;;;;5060227;28;20035;-89
2021/12/01 04:47:09;;;;;;;0.95;0.50;;;17.70;52.80;;;;;;5076535;28;20023;-87
2021/12/01 04:49:37;;;;;;;1.25;0.38;;;17.70;52.80;;;;;;5076596;28;20439;-89
2021/12/01 04:52:04;;;;;;;1.27;0.30;;;17.70;52.80;;;;;;5076398;28;20032;-89
2021/12/01 04:54:30;;;;;;;0.88;0.50;;;17.70;52.80;;;;;;5076806;28;20032;-87
2021/12/01 04:56:56;;;;;;;0.70;0.43;;;17.70;52.80;;;;;;5076319;28;20535;-89
2021/12/01 04:59:23;;;;;;;1.00;0.47;;;17.60;52.80;;;;;;5094419;28;20039;-87
2021/12/01 05:01:55;;;;;;;0.60;0.40;;;17.60;52.70;;;;;;5076125;28;20074;-89
2021/12/01 05:04:21;;;;;;;0.73;0.50;;;17.60;52.80;;;;;;5094593;28;20472;-89
2021/12/01 05:06:47;;;;;;;1.15;0.50;;;17.60;52.70;;;;;;5094239;28;20038;-90
2021/12/01 05:09:13;;;;;;;0.80;0.50;;;17.60;52.90;;;;;;5094535;28;20513;-87
2021/12/01 05:11:39;;;;;;;2.30;0.50;;;17.60;52.80;;;;;;5094231;28;20474;-87
2021/12/01 05:14:04;;;;;;;1.35;0.60;;;17.60;52.80;;;;;;5076116;28;20032;-89
2021/12/01 05:16:30;;;;;;;0.93;0.60;;;17.60;52.90;;;;;;5094153;28;20417;-89
2021/12/01 05:18:56;;;;;;;2.03;0.50;;;17.60;53.00;;;;;;5094153;28;20523;-87
2021/12/01 05:21:22;;;;;;;1.70;0.50;;;17.50;53.90;;;;;;5076473;28;20027;-90
2021/12/01 05:23:48;;;;;;;1.20;0.50;;;17.50;52.80;;;;;;5094616;28;20470;-89
2021/12/01 05:26:13;;;;;;;0.70;0.50;;;17.50;52.90;;;;;;5075939;28;20077;-88
2021/12/01 05:28:40;;;;;;;1.23;0.40;;;17.50;52.90;;;;;;5094141;28;20444;-87
2021/12/01 05:31:07;;;;;;;1.05;0.40;;;17.50;53.00;;;;;;5094689;28;20024;-88
2021/12/01 05:33:33;;;;;;;1.98;0.47;;;17.50;53.00;;;;;;5075650;28;20381;-89
2021/12/01 05:35:59;;;;;;;1.00;0.52;;;17.50;52.90;;;;;;5093680;28;20024;-88
2021/12/01 05:38:25;;;;;;;0.60;0.40;;;17.50;52.90;;;;;;5093810;28;20024;-88
2021/12/01 05:40:51;;;;;;;1.42;0.50;;;17.50;52.90;;;;;;5092823;28;20028;-87
2021/12/01 05:43:18;;;;;;;0.95;0.60;;;17.50;53.00;;;;;;5075552;28;20055;-89
2021/12/01 05:45:45;;;;;;;0.50;0.40;;;17.40;53.00;;;;;;5075757;28;20022;-88
2021/12/01 05:48:11;;;;;;;1.02;0.60;;;17.40;53.10;;;;;;5075890;28;20020;-88
2021/12/01 05:50:36;;;;;;;0.85;0.40;;;17.40;53.00;;;;;;5075631;28;20023;-87
2021/12/01 05:53:03;;;;;;;1.35;0.50;;;17.40;53.00;;;;;;5075838;28;20044;-88
2021/12/01 05:55:28;;;;;;;1.13;0.50;;;17.40;53.00;;;;;;5093631;28;20047;-88
2021/12/01 05:57:54;;;;;;;0.73;0.40;;;17.40;53.10;;;;;;5093024;28;20067;-88
2021/12/01 06:00:20;;;;;;;1.20;0.60;;;17.40;53.10;;;;;;5075663;28;20071;-87
2021/12/01 06:02:50;;;;;;;1.30;0.50;;;17.40;54.20;;;;;;5075689;28;20027;-88
2021/12/01 06:05:16;;;;;;;1.38;0.52;;;17.40;53.10;;;;;;5075596;28;20020;-87
2021/12/01 06:07:42;;;;;;;0.60;0.30;;;17.30;53.00;;;;;;5075298;28;20024;-89
2021/12/01 06:10:09;;;;;;;1.30;0.45;;;17.40;53.10;;;;;;5075708;28;20087;-88
2021/12/01 06:12:34;;;;;;;1.05;0.55;;;17.30;53.20;;;;;;5075170;28;20081;-89
2021/12/01 06:15:01;;;;;;;0.82;0.40;;;17.40;53.40;;;;;;5093620;28;20024;-89
2021/12/01 06:17:27;;;;;;;1.25;0.50;;;17.40;53.50;;;;;;5075411;28;20107;-88
2021/12/01 06:19:53;;;;;;;0.70;0.45;;;17.40;53.40;;;;;;5093568;28;20100;-87
2021/12/01 06:22:19;;;;;;;0.57;0.40;;;17.50;53.50;;;;;;5075303;28;20500;-88
2021/12/01 06:24:45;;;;;;;1.23;0.40;;;17.50;53.40;;;;;;5093260;28;20111;-88
2021/12/01 06:27:11;;;;;;;0.70;0.50;;;17.60;53.50;;;;;;5058599;28;20119;-89
2021/12/01 06:29:37;;;;;;;1.05;0.57;;;17.70;53.30;;;;;;5093467;28;20068;-89
2021/12/01 06:32:04;;;;;;;1.00;0.38;;;17.90;53.10;;;;;;5075180;28;20449;-88
2021/12/01 06:34:29;;;;;;;1.60;0.40;;;18.00;53.00;;;;;;5075153;28;20020;-88
2021/12/01 06:36:55;;;;;;;0.63;0.40;;;18.20;52.80;;;;;;5074929;28;20093;-87
2021/12/01 06:39:21;;;;;;;0.57;0.32;;;18.30;52.60;;;;;;5095352;28;20056;-89
2021/12/01 06:41:46;;;;;;;2.17;0.43;;;18.50;52.30;;;;;;5096694;28;20059;-88
2021/12/01 06:44:13;;;;;;;1.00;0.50;;;18.70;52.10;;;;;;5097121;28;20112;-89
2021/12/01 06:46:38;;;;;;;3.70;0.70;;;18.80;51.70;;;;;;5078827;28;20027;-89
2021/12/01 06:49:04;;;;;;;4.57;0.70;;;19.00;51.60;;;;;;5078516;28;20577;-88
2021/12/01 06:51:30;;;;;;;0.77;0.40;;;19.20;51.50;;;;;;5096715;28;20381;-89
2021/12/01 06:53:56;;;;;;;2.55;0.50;;;19.40;51.30;;;;;;5078671;28;20051;-89
2021/12/01 06:56:22;;;;;;;5.68;0.43;;;19.50;51.20;;;;;;5096720;28;20529;-91
2021/12/01 06:58:49;;;;;;;2.80;0.55;;;19.60;51.00;;;;;;5078588;28;20415;-90
2021/12/01 07:01:14;;;;;;;1.60;0.40;;;19.80;50.90;;;;;;5062568;28;20478;-86
2021/12/01 07:03:40;;;;;;;1.45;0.40;;;20.00;50.70;;;;;;5097236;28;20027;-85
2021/12/01 07:06:06;;;;;;;4.57;0.50;;;20.00;50.50;;;;;;5096816;28;20107;-87
2021/12/01 07:08:32;;;;;;;3.78;0.40;;;20.20;50.30;;;;;;5096503;28;20093;-90
2021/12/01 07:10:58;;;;;;;4.43;0.68;;;20.20;50.20;;;;;;5078543;28;20474;-88
2021/12/01 07:13:24;;;;;;;1.77;0.50;;;20.40;50.10;;;;;;5096270;28;20035;-91
2021/12/01 07:15:49;;;;;;;2.78;0.32;;;20.40;50.00;;;;;;5095497;28;20020;-90
2021/12/01 07:18:15;;;;;;;2.50;0.43;;;20.50;49.90;;;;;;5096385;28;20085;-89
2021/12/01 07:20:44;;;;;;;2.45;0.40;;;20.50;49.70;;;;;;5077440;28;20020;-88
2021/12/01 07:23:11;;;;;;;3.40;0.30;;;20.60;49.70;;;;;;5096187;28;20028;-87
2021/12/01 07:25:36;;;;;;;8.80;0.65;;;20.60;49.50;;;;;;5076858;28;20516;-86
2021/12/01 07:28:02;;;;;;;3.35;0.50;;;20.70;49.60;;;;;;5095850;28;20016;-87
2021/12/01 07:30:28;;;;;;;2.30;0.30;;;20.70;49.60;;;;;;5096104;28;20503;-90
2021/12/01 07:32:53;;;;;;;4.63;0.50;;;20.70;49.40;;;;;;5094595;28;20028;-90
2021/12/01 07:35:19;;;;;;;1.38;0.30;;;20.80;49.40;;;;;;5096039;28;20021;-90
2021/12/01 07:37:46;;;;;;;6.20;0.45;;;20.80;49.40;;;;;;5094700;28;20116;-87
2021/12/01 07:40:12;;;;;;;1.73;0.40;;;20.80;49.40;;;;;;5077779;28;20031;-88
2021/12/01 07:42:38;;;;;;;2.13;0.30;;;20.80;49.30;;;;;;5095458;28;20052;-87
2021/12/01 07:45:04;;;;;;;2.95;0.30;;;20.80;49.20;;;;;;5077892;28;20026;-90
2021/12/01 07:47:31;;;;;;;3.03;0.28;;;20.80;49.10;;;;;;5095339;28;20082;-88
2021/12/01 07:49:57;;;;;;;4.45;0.60;;;20.80;49.30;;;;;;5077684;28;20389;-88
2021/12/01 07:52:23;;;;;;;3.38;0.50;;;20.80;49.10;;;;;;5095625;28;20020;-88
2021/12/01 07:54:48;;;;;;;2.33;0.43;;;20.80;49.10;;;;;;5095740;28;20058;-89
2021/12/01 07:57:14;;;;;;;1.90;0.40;;;20.80;49.10;;;;;;5077175;28;20580;-87
2021/12/01 07:59:40;;;;;;;2.33;0.40;;;20.90;49.10;;;;;;5095563;28;20024;-89
2021/12/01 08:02:06;;;;;;;3.22;0.77;;;20.80;49.10;;;;;;5095870;28;20366;-88
2021/12/01 08:04:32;;;;;;;1.90;0.40;;;20.80;49.00;;;;;;5095356;28;20161;-87
2021/12/01 08:06:58;;;;;;;1.30;0.30;;;20.80;49.00;;;;;;5095225;28;20103;-89
2021/12/01 08:09:25;;;;;;;4.40;0.50;;;20.80;49.00;;;;;;5077096;28;20470;-88
2021/12/01 08:11:52;;;;;;;3.47;0.47;;;20.80;49.10;;;;;;5077201;28;20096;-91
2021/12/01 08:14:18;;;;;;;1.38;0.30;;;20.80;49.10;;;;;;5095153;28;20032;-88
2021/12/01 08:16:44;;;;;;;1.75;0.50;;;20.80;49.10;;;;;;5093998;28;20081;-88
2021/12/01 08:19:10;;;;;;;3.10;0.30;;;20.80;49.20;;;;;;5077173;28;20408;-89
2021/12/01 08:21:36;;;;;;;2.13;0.30;;;20.80;49.30;;;;;;5076858;28;20027;-88
2021/12/01 08:24:01;;;;;;;4.05;0.55;;;20.80;49.30;;;;;;5077038;28;20442;-87
2021/12/01 08:26:27;;;;;;;3.55;0.40;;;20.80;49.30;;;;;;5076859;28;20031;-89
2021/12/01 08:28:53;;;;;;;1.50;0.35;;;20.70;49.40;;;;;;5077082;28;20024;-91
2021/12/01 08:31:19;;;;;;;5.03;0.40;;;20.70;49.30;;;;;;5094712;28;20099;-90
2021/12/01 08:33:47;;;;;;;6.20;0.50;;;20.70;49.30;;;;;;5094926;28;20039;-90
2021/12/01 08:36:13;;;;;;;1.95;0.52;;;20.70;49.30;;;;;;5094790;28;20017;-90
2021/12/01 08:38:40;;;;;;;6.15;0.57;;;20.70;49.40;;;;;;5076638;28;20107;-88
2021/12/01 08:41:07;;;;;;;2.00;0.30;;;20.70;49.40;;;;;;5076760;28;20476;-89
2021/12/01 08:43:33;;;;;;;4.32;0.50;;;20.70;49.40;;;;;;5094633;28;20385;-89
2021/12/01 08:46:01;;;;;;;3.22;0.50;;;20.70;49.40;;;;;;5078369;28;20020;-89
2021/12/01 08:48:27;;;;;;;3.30;0.70;;;20.70;49.50;;;;;;5094840;28;20016;-90
2021/12/01 08:50:53;;;;;;;2.53;0.50;;;20.60;49.40;;;;;;5095023;28;20024;-85
2021/12/01 08:53:19;;;;;;;2.65;0.70;;;20.60;49.50;;;;;;5094436;28;20032;-87
2021/12/01 08:55:45;;;;;;;6.15;1.17;;;20.60;49.50;;;;;;5094623;28;20099;-89
2021/12/01 08:58:13;;;;;;;3.88;0.73;;;20.60;49.60;;;;;;5094588;28;20099;-89
2021/12/01 09:00:45;;;;;;;3.95;0.85;;;20.60;49.70;;;;;;5076613;28;20427;-89
2021/12/01 09:03:16;;;;;;;4.15;0.77;;;20.60;49.80;;;;;;5094302;28;20496;-89
2021/12/01 09:05:44;;;;;;;7.88;0.70;;;20.60;49.90;;;;;;5076633;28;20028;-89
2021/12/01 09:08:10;;;;;;;7.00;0.68;;;20.60;49.90;;;;;;5094049;28;20028;-84
2021/12/01 09:10:36;;;;;;;6.75;0.90;;;20.60;49.90;;;;;;5094205;28;20020;-88
2021/12/01 09:13:04;;;;;;;7.95;0.90;;;20.50;49.90;;;;;;5094251;28;20047;-88
2021/12/01 09:15:29;;;;;;;10.32;1.35;;;20.50;49.90;;;;;;5094275;28;20085;-88
2021/12/01 09:17:57;;;;;;;9.00;1.00;;;20.50;49.90;;;;;;5094251;28;20102;-90
2021/12/01 09:20:23;;;;;;;7.18;1.13;;;20.50;49.90;;;;;;5094085;28;20032;-87
2021/12/01 09:22:49;;;;;;;6.53;1.05;;;20.50;49.90;;;;;;5093390;28;20043;-88
2021/12/01 09:25:14;;;;;;;8.15;1.00;;;20.50;49.90;;;;;;5094138;28;20378;-89
2021/12/01 09:27:40;;;;;;;8.07;1.00;;;20.50;50.00;;;;;;5094305;28;20020;-89
2021/12/01 09:30:07;;;;;;;7.32;1.20;;;20.50;49.90;;;;;;5076257;28;20477;-91
2021/12/01 09:32:35;;;;;;;5.75;0.93;;;20.50;49.90;;;;;;5075879;28;20028;-87
2021/12/01 09:35:02;;;;;;;7.38;0.90;;;20.50;50.00;;;;;;5076218;28;20081;-86
2021/12/01 09:37:28;;;;;;;6.50;1.00;;;20.50;50.00;;;;;;5092522;27;20135;-87
2021/12/01 09:39:54;;;;;;;6.78;0.90;;;20.50;49.90;;;;;;5099835;28;20390;-87
2021/12/01 09:42:21;;;;;;;6.53;1.20;;;20.50;50.00;;;;;;5100433;28;20055;-89
2021/12/01 09:44:49;;;;;;;7.65;0.90;;;20.40;49.90;;;;;;5095467;28;20016;-88
2021/12/01 09:47:18;;;;;;;7.72;1.25;;;20.40;50.00;;;;;;5081997;28;20016;-87
2021/12/01 09:49:44;;;;;;;9.63;1.50;;;20.40;50.00;;;;;;5093732;28;20020;-90
2021/12/01 09:52:11;;;;;;;13.30;1.35;;;20.40;50.00;;;;;;5102299;28;20061;-87
2021/12/01 09:54:38;;;;;;;8.15;1.20;;;20.40;50.10;;;;;;5095401;28;20070;-88
2021/12/01 09:57:04;;;;;;;16.55;1.52;;;20.40;50.10;;;;;;5095427;28;20389;-85
2021/12/01 09:59:30;;;;;;;10.43;1.27;;;20.40;50.20;;;;;;5113897;28;20028;-86
2021/12/01 10:01:55;;;;;;;8.88;1.42;;;20.40;50.20;;;;;;5113518;28;20373;-87
2021/12/01 10:04:21;;;;;;;8.32;1.42;;;20.40;50.20;;;;;;5113672;28;20023;-87
2021/12/01 10:06:47;;;;;;;12.48;1.58;;;20.40;50.20;;;;;;5113567;28;20016;-87
2021/12/01 10:09:14;;;;;;;8.60;1.73;;;20.30;50.20;;;;;;5113415;28;20465;-87
2021/12/01 10:11:41;;;;;;;13.02;1.90;;;20.30;50.20;;;;;;5113600;28;20024;-88
2021/12/01 10:14:16;;;;;;;7.97;1.58;;;20.40;51.40;;;;;;5115118;28;20024;-87
2021/12/01 10:16:43;;;;;;;7.72;1.38;;;20.30;50.40;;;;;;5117505;28;20103;-88
2021/12/01 10:19:11;;;;;;;13.48;1.55;;;20.30;50.50;;;;;;5116791;28;20103;-87
2021/12/01 10:21:45;;;;;;;8.90;1.23;;;20.30;50.60;;;;;;5116894;28;20028;-87
2021/12/01 10:24:12;;;;;;;8.88;1.27;;;20.30;50.70;;;;;;5098934;28;20118;-86
2021/12/01 10:26:44;;;;;;;7.93;1.50;;;20.30;50.70;;;;;;5116843;28;20089;-87
2021/12/01 10:29:13;;;;;;;9.90;1.50;;;20.30;50.80;;;;;;5117137;28;20023;-87
2021/12/01 10:31:43;;;;;;;9.40;1.55;;;20.20;50.70;;;;;;5117413;28;20027;-87
2021/12/01 10:34:22;;;;;;;8.45;1.42;;;20.30;50.80;;;;;;5117465;28;20056;-87
2021/12/01 10:37:05;;;;;;;12.02;1.70;;;20.20;50.70;;;;;;5117240;28;20544;-87
2021/12/01 10:39:30;;;;;;;13.10;1.55;;;20.30;50.80;;;;;;5117194;28;20077;-87
2021/12/01 10:42:05;;;;;;;10.20;1.70;;;20.20;50.90;;;;;;5116655;28;20048;-86
2021/12/01 10:44:33;;;;;;;9.60;1.60;;;20.20;50.70;;;;;;5098827;28;20419;-87
2021/12/01 10:47:10;;;;;;;9.07;1.80;;;20.20;50.80;;;;;;5116930;28;20024;-87
2021/12/01 10:49:42;;;;;;;8.52;1.73;;;20.20;50.70;;;;;;5094702;28;20070;-87
2021/12/01 10:52:35;;;;;;;11.93;2.20;;;20.20;50.70;;;;;;5077919;28;20059;-87
2021/12/01 10:55:05;;;;;;;6.78;1.17;;;20.20;50.70;;;;;;5096403;28;20060;-89
2021/12/01 10:57:31;;;;;;;6.45;1.38;;;20.20;50.80;;;;;;5096241;28;20024;-88
2021/12/01 10:59:56;;;;;;;5.78;1.30;;;20.20;50.90;;;;;;5077782;28;20093;-88
2021/12/01 11:02:22;;;;;;;5.68;1.13;;;20.20;51.80;;;;;;5096379;28;20501;-88
2021/12/01 11:04:50;;;;;;;7.38;1.33;;;20.20;50.90;;;;;;5096265;28;20020;-87
2021/12/01 11:07:28;;;;;;;6.38;1.30;;;20.20;51.90;;;;;;5096095;28;20541;-86
2021/12/01 11:10:12;;;;;;;5.55;1.35;;;20.20;50.80;;;;;;5095815;28;20020;-89
2021/12/01 11:12:38;;;;;;;8.00;1.38;;;20.20;50.90;;;;;;5096332;28;20026;-87
2021/12/01 11:15:22;;;;;;;5.35;1.38;;;20.20;51.00;;;;;;5061055;28;20062;-88
2021/12/01 11:17:48;;;;;;;5.68;1.35;;;20.10;50.80;;;;;;5095476;28;20032;-88
2021/12/01 11:20:34;;;;;;;8.80;1.25;;;20.10;50.90;;;;;;5096020;28;20024;-88
2021/12/01 11:23:11;;;;;;;6.30;1.65;;;20.10;50.80;;;;;;5111195;28;20063;-87
2021/12/01 11:25:38;;;;;;;5.97;1.30;;;20.10;50.90;;;;;;5112027;28;20107;-86
2021/12/01 11:28:08;;;;;;;6.35;1.25;;;20.10;50.80;;;;;;5094003;28;20027;-88
2021/12/01 11:30:34;;;;;;;7.70;1.80;;;20.10;50.80;;;;;;5113529;28;20429;-88
2021/12/01 11:33:00;;;;;;;9.77;1.50;;;20.10;50.80;;;;;;5113223;28;20008;-90
2021/12/01 11:35:26;;;;;;;4.60;1.30;;;20.10;50.80;;;;;;5111279;28;20136;-89
2021/12/01 11:37:55;;;;;;;4.20;1.20;;;20.10;50.80;;;;;;5096461;28;20089;-89
2021/12/01 11:40:22;;;;;;;5.07;1.15;;;20.10;50.80;;;;;;5096664;28;20484;-89
2021/12/01 11:42:48;;;;;;;7.90;1.60;;;20.10;50.70;;;;;;5095905;28;20048;-89
2021/12/01 11:45:15;;;;;;;8.00;1.25;;;20.10;50.70;;;;;;5077837;28;20027;-89
2021/12/01 11:47:47;;;;;;;5.28;1.40;;;20.10;50.70;;;;;;5095682;28;20036;-89
2021/12/01 11:50:23;;;;;;;7.03;1.45;;;20.00;50.60;;;;;;5095459;28;20106;-88
2021/12/01 11:53:14;;;;;;;4.65;1.48;;;20.00;50.60;;;;;;5077313;28;20105;-87
2021/12/01 11:56:15;;;;;;;5.22;1.13;;;20.00;50.50;;;;;;5096081;28;20150;-87
2021/12/01 11:58:56;;;;;;;3.72;1.25;;;20.00;50.50;;;;;;5062283;28;20170;-90
2021/12/01 12:01:22;;;;;;;5.07;1.38;;;20.00;50.60;;;;;;5106591;28;20488;-88
2021/12/01 12:03:53;;;;;;;5.60;1.52;;;20.00;50.60;;;;;;5097306;28;20032;-88
2021/12/01 12:06:28;;;;;;;5.20;1.23;;;20.00;50.60;;;;;;5077428;28;20085;-89
2021/12/01 12:08:54;;;;;;;5.80;1.50;;;20.00;50.50;;;;;;5100833;28;20068;-89
2021/12/01 12:11:47;;;;;;;4.68;1.42;;;20.00;50.70;;;;;;5097359;28;20020;-89
2021/12/01 12:14:35;;;;;;;6.03;1.58;;;20.00;50.70;;;;;;5094313;28;20490;-88
2021/12/01 12:17:12;;;;;;;5.70;1.52;;;19.90;50.70;;;;;;5115512;28;20038;-90
2021/12/01 12:19:47;;;;;;;8.05;1.90;;;19.90;50.80;;;;;;5115697;28;20028;-89
2021/12/01 12:22:26;;;;;;;5.95;1.52;;;19.90;50.70;;;;;;5115509;28;20103;-89
2021/12/01 12:24:57;;;;;;;6.50;1.40;;;19.90;50.70;;;;;;5097033;28;20421;-89
2021/12/01 12:27:34;;;;;;;9.63;1.85;;;19.90;50.80;;;;;;5097058;28;20346;-88
2021/12/01 12:30:05;;;;;;;5.22;1.58;;;19.90;50.70;;;;;;5114806;28;20023;-89
2021/12/01 12:32:33;;;;;;;5.13;1.50;;;19.90;50.80;;;;;;5096491;28;20350;-89
2021/12/01 12:35:06;;;;;;;6.40;1.42;;;19.90;50.90;;;;;;5096587;28;20032;-89
2021/12/01 12:37:33;;;;;;;5.53;1.52;;;19.80;50.80;;;;;;5114095;28;20076;-88
2021/12/01 12:40:03;;;;;;;6.45;2.00;;;19.80;50.80;;;;;;5096640;28;20384;-89
2021/12/01 12:42:29;;;;;;;6.88;1.63;;;19.80;50.80;;;;;;5092765;28;20044;-89
2021/12/01 12:44:57;;;;;;;5.45;1.67;;;19.80;50.80;;;;;;5084678;28;20023;-89
2021/12/01 12:47:27;;;;;;;9.55;2.00;;;19.80;50.90;;;;;;5104120;28;20019;-89
2021/12/01 12:49:55;;;;;;;6.43;1.63;;;19.80;50.90;;;;;;5104999;28;20423;-88
2021/12/01 12:52:42;;;;;;;6.63;1.58;;;19.80;50.90;;;;;;5085243;28;20366;-89
2021/12/01 12:55:31;;;;;;;7.15;1.98;;;19.80;50.80;;;;;;5104053;28;20042;-89